sensor_id;sensor_type;location;lat;lon;timestamp;P1;durP1;ratioP1;P2;durP2;ratioP2
68449;SDS011;67758;39.572;2.652;2024-02-23T00:01:49;14.18;;;1.27;;
68449;SDS011;67758;39.572;2.652;2024-02-23T00:04:15;7.28;;;0.80;;
68449;SDS011;67758;39.572;2.652;2024-02-23T00:06:41;8.05;;;1.17;;
68449;SDS011;67758;39.572;2.652;2024-02-23T00:09:06;6.90;;;0.70;;
68449;SDS011;67758;39.572;2.652;2024-02-23T00:11:32;10.80;;;1.43;;
68449;SDS011;67758;39.572;2.652;2024-02-23T00:13:58;15.27;;;0.98;;
68449;SDS011;67758;39.572;2.652;2024-02-23T00:16:25;7.53;;;0.88;;
68449;SDS011;67758;39.572;2.652;2024-02-23T00:18:51;13.27;;;1.20;;
68449;SDS011;67758;39.572;2.652;2024-02-23T00:21:17;10.27;;;1.10;;
68449;SDS011;67758;39.572;2.652;2024-02-23T00:23:43;11.88;;;0.98;;
68449;SDS011;67758;39.572;2.652;2024-02-23T00:26:08;9.13;;;0.83;;
68449;SDS011;67758;39.572;2.652;2024-02-23T00:28:34;7.10;;;1.00;;
68449;SDS011;67758;39.572;2.652;2024-02-23T00:31:00;7.67;;;1.00;;
68449;SDS011;67758;39.572;2.652;2024-02-23T00:33:25;5.53;;;0.47;;
68449;SDS011;67758;39.572;2.652;2024-02-23T00:35:51;5.00;;;0.60;;
68449;SDS011;67758;39.572;2.652;2024-02-23T00:38:17;13.48;;;1.35;;
68449;SDS011;67758;39.572;2.652;2024-02-23T00:40:42;9.90;;;1.27;;
68449;SDS011;67758;39.572;2.652;2024-02-23T00:43:08;10.68;;;0.82;;
68449;SDS011;67758;39.572;2.652;2024-02-23T00:45:34;8.48;;;0.60;;
68449;SDS011;67758;39.572;2.652;2024-02-23T00:47:59;5.50;;;0.53;;
68449;SDS011;67758;39.572;2.652;2024-02-23T00:50:25;5.78;;;0.90;;
68449;SDS011;67758;39.572;2.652;2024-02-23T00:52:54;5.75;;;0.93;;
68449;SDS011;67758;39.572;2.652;2024-02-23T00:55:19;5.33;;;0.80;;
68449;SDS011;67758;39.572;2.652;2024-02-23T00:57:45;8.70;;;0.60;;
68449;SDS011;67758;39.572;2.652;2024-02-23T01:00:11;9.70;;;0.80;;
68449;SDS011;67758;39.572;2.652;2024-02-23T01:02:40;7.18;;;0.90;;
68449;SDS011;67758;39.572;2.652;2024-02-23T01:05:06;7.85;;;1.13;;
68449;SDS011;67758;39.572;2.652;2024-02-23T01:07:34;9.80;;;1.17;;
68449;SDS011;67758;39.572;2.652;2024-02-23T01:10:00;17.77;;;1.37;;
68449;SDS011;67758;39.572;2.652;2024-02-23T01:12:26;6.18;;;0.70;;
68449;SDS011;67758;39.572;2.652;2024-02-23T01:14:51;13.60;;;1.00;;
68449;SDS011;67758;39.572;2.652;2024-02-23T01:17:17;13.05;;;1.80;;
68449;SDS011;67758;39.572;2.652;2024-02-23T01:19:43;15.70;;;1.57;;
68449;SDS011;67758;39.572;2.652;2024-02-23T01:22:10;8.27;;;1.10;;
68449;SDS011;67758;39.572;2.652;2024-02-23T01:24:36;17.27;;;1.60;;
68449;SDS011;67758;39.572;2.652;2024-02-23T01:27:02;10.63;;;1.60;;
68449;SDS011;67758;39.572;2.652;2024-02-23T01:29:27;12.93;;;2.33;;
68449;SDS011;67758;39.572;2.652;2024-02-23T01:31:53;7.45;;;1.02;;
68449;SDS011;67758;39.572;2.652;2024-02-23T01:34:21;11.35;;;1.77;;
68449;SDS011;67758;39.572;2.652;2024-02-23T01:36:47;9.75;;;1.42;;
68449;SDS011;67758;39.572;2.652;2024-02-23T01:39:13;10.60;;;1.87;;
68449;SDS011;67758;39.572;2.652;2024-02-23T01:41:38;8.65;;;1.85;;
68449;SDS011;67758;39.572;2.652;2024-02-23T01:44:04;8.87;;;1.73;;
68449;SDS011;67758;39.572;2.652;2024-02-23T01:46:30;11.32;;;1.80;;
68449;SDS011;67758;39.572;2.652;2024-02-23T01:48:56;15.07;;;2.10;;
68449;SDS011;67758;39.572;2.652;2024-02-23T01:51:23;10.20;;;1.70;;
68449;SDS011;67758;39.572;2.652;2024-02-23T01:53:49;10.98;;;2.83;;
68449;SDS011;67758;39.572;2.652;2024-02-23T01:56:16;10.93;;;2.38;;
68449;SDS011;67758;39.572;2.652;2024-02-23T01:58:45;11.95;;;2.17;;
68449;SDS011;67758;39.572;2.652;2024-02-23T02:01:11;14.05;;;2.97;;
68449;SDS011;67758;39.572;2.652;2024-02-23T02:03:40;10.77;;;2.87;;
68449;SDS011;67758;39.572;2.652;2024-02-23T02:06:06;11.02;;;2.50;;
68449;SDS011;67758;39.572;2.652;2024-02-23T02:08:35;9.02;;;3.22;;
68449;SDS011;67758;39.572;2.652;2024-02-23T02:11:02;8.48;;;2.17;;
68449;SDS011;67758;39.572;2.652;2024-02-23T02:13:28;7.13;;;1.77;;
68449;SDS011;67758;39.572;2.652;2024-02-23T02:15:54;6.93;;;1.88;;
68449;SDS011;67758;39.572;2.652;2024-02-23T02:18:20;9.75;;;1.35;;
68449;SDS011;67758;39.572;2.652;2024-02-23T02:20:55;10.67;;;1.23;;
68449;SDS011;67758;39.572;2.652;2024-02-23T02:23:22;3.50;;;0.63;;
68449;SDS011;67758;39.572;2.652;2024-02-23T02:25:58;2.72;;;0.25;;
68449;SDS011;67758;39.572;2.652;2024-02-23T02:28:24;4.88;;;0.35;;
68449;SDS011;67758;39.572;2.652;2024-02-23T02:30:51;4.30;;;0.50;;
68449;SDS011;67758;39.572;2.652;2024-02-23T02:33:17;6.65;;;0.45;;
68449;SDS011;67758;39.572;2.652;2024-02-23T02:35:43;6.97;;;1.25;;
68449;SDS011;67758;39.572;2.652;2024-02-23T02:38:10;5.90;;;0.50;;
68449;SDS011;67758;39.572;2.652;2024-02-23T02:40:36;5.75;;;0.45;;
68449;SDS011;67758;39.572;2.652;2024-02-23T02:43:02;2.50;;;0.30;;
68449;SDS011;67758;39.572;2.652;2024-02-23T02:45:28;5.20;;;0.40;;
68449;SDS011;67758;39.572;2.652;2024-02-23T02:47:53;9.00;;;0.57;;
68449;SDS011;67758;39.572;2.652;2024-02-23T02:50:19;8.90;;;0.80;;
68449;SDS011;67758;39.572;2.652;2024-02-23T02:52:45;4.70;;;0.47;;
68449;SDS011;67758;39.572;2.652;2024-02-23T02:55:11;5.88;;;1.00;;
68449;SDS011;67758;39.572;2.652;2024-02-23T02:57:36;7.13;;;0.50;;
68449;SDS011;67758;39.572;2.652;2024-02-23T03:00:03;6.17;;;0.43;;
68449;SDS011;67758;39.572;2.652;2024-02-23T03:02:33;8.05;;;0.68;;
68449;SDS011;67758;39.572;2.652;2024-02-23T03:04:58;12.02;;;0.90;;
68449;SDS011;67758;39.572;2.652;2024-02-23T03:07:24;9.57;;;0.50;;
68449;SDS011;67758;39.572;2.652;2024-02-23T03:09:50;8.27;;;0.70;;
68449;SDS011;67758;39.572;2.652;2024-02-23T03:12:16;6.10;;;0.60;;
68449;SDS011;67758;39.572;2.652;2024-02-23T03:14:42;8.15;;;0.73;;
68449;SDS011;67758;39.572;2.652;2024-02-23T03:17:08;11.35;;;0.70;;
68449;SDS011;67758;39.572;2.652;2024-02-23T03:19:37;9.93;;;0.77;;
68449;SDS011;67758;39.572;2.652;2024-02-23T03:22:04;21.92;;;1.30;;
68449;SDS011;67758;39.572;2.652;2024-02-23T03:24:30;9.20;;;0.60;;
68449;SDS011;67758;39.572;2.652;2024-02-23T03:26:55;8.55;;;0.60;;
68449;SDS011;67758;39.572;2.652;2024-02-23T03:29:22;10.25;;;1.27;;
68449;SDS011;67758;39.572;2.652;2024-02-23T03:31:54;11.83;;;1.27;;
68449;SDS011;67758;39.572;2.652;2024-02-23T03:34:23;9.18;;;0.63;;
68449;SDS011;67758;39.572;2.652;2024-02-23T03:36:49;8.20;;;0.90;;
68449;SDS011;67758;39.572;2.652;2024-02-23T03:39:15;11.73;;;0.70;;
68449;SDS011;67758;39.572;2.652;2024-02-23T03:41:40;8.75;;;0.60;;
68449;SDS011;67758;39.572;2.652;2024-02-23T03:44:06;8.30;;;0.40;;
68449;SDS011;67758;39.572;2.652;2024-02-23T03:46:31;7.67;;;0.77;;
68449;SDS011;67758;39.572;2.652;2024-02-23T03:48:57;6.15;;;0.50;;
68449;SDS011;67758;39.572;2.652;2024-02-23T03:51:23;5.57;;;0.40;;
68449;SDS011;67758;39.572;2.652;2024-02-23T03:53:49;6.88;;;0.55;;
68449;SDS011;67758;39.572;2.652;2024-02-23T03:56:15;6.78;;;0.63;;
68449;SDS011;67758;39.572;2.652;2024-02-23T03:58:41;3.00;;;0.20;;
68449;SDS011;67758;39.572;2.652;2024-02-23T04:01:06;7.22;;;0.47;;
68449;SDS011;67758;39.572;2.652;2024-02-23T04:03:32;4.27;;;0.30;;
68449;SDS011;67758;39.572;2.652;2024-02-23T04:05:57;4.10;;;0.30;;
68449;SDS011;67758;39.572;2.652;2024-02-23T04:08:23;4.57;;;0.45;;
68449;SDS011;67758;39.572;2.652;2024-02-23T04:10:49;2.60;;;0.30;;
68449;SDS011;67758;39.572;2.652;2024-02-23T04:13:14;5.63;;;0.45;;
68449;SDS011;67758;39.572;2.652;2024-02-23T04:15:40;4.63;;;0.60;;
68449;SDS011;67758;39.572;2.652;2024-02-23T04:18:06;3.08;;;0.28;;
68449;SDS011;67758;39.572;2.652;2024-02-23T04:20:32;5.13;;;0.40;;
68449;SDS011;67758;39.572;2.652;2024-02-23T04:22:58;2.50;;;0.25;;
68449;SDS011;67758;39.572;2.652;2024-02-23T04:25:23;4.30;;;0.20;;
68449;SDS011;67758;39.572;2.652;2024-02-23T04:27:49;4.63;;;0.30;;
68449;SDS011;67758;39.572;2.652;2024-02-23T04:30:15;3.88;;;0.28;;
68449;SDS011;67758;39.572;2.652;2024-02-23T04:32:40;4.37;;;0.30;;
68449;SDS011;67758;39.572;2.652;2024-02-23T04:35:07;2.95;;;0.30;;
68449;SDS011;67758;39.572;2.652;2024-02-23T04:37:33;3.25;;;0.30;;
68449;SDS011;67758;39.572;2.652;2024-02-23T04:39:59;5.43;;;0.33;;
68449;SDS011;67758;39.572;2.652;2024-02-23T04:42:24;7.18;;;0.77;;
68449;SDS011;67758;39.572;2.652;2024-02-23T04:44:50;3.90;;;0.40;;
68449;SDS011;67758;39.572;2.652;2024-02-23T04:47:17;4.50;;;0.40;;
68449;SDS011;67758;39.572;2.652;2024-02-23T04:49:43;5.83;;;0.77;;
68449;SDS011;67758;39.572;2.652;2024-02-23T04:52:09;8.50;;;0.68;;
68449;SDS011;67758;39.572;2.652;2024-02-23T04:54:34;5.10;;;0.40;;
68449;SDS011;67758;39.572;2.652;2024-02-23T04:57:00;12.53;;;1.00;;
68449;SDS011;67758;39.572;2.652;2024-02-23T04:59:26;7.22;;;0.70;;
68449;SDS011;67758;39.572;2.652;2024-02-23T05:01:51;7.00;;;0.90;;
68449;SDS011;67758;39.572;2.652;2024-02-23T05:04:17;8.90;;;1.00;;
68449;SDS011;67758;39.572;2.652;2024-02-23T05:06:42;6.00;;;0.70;;
68449;SDS011;67758;39.572;2.652;2024-02-23T05:09:09;7.68;;;1.40;;
68449;SDS011;67758;39.572;2.652;2024-02-23T05:11:34;7.63;;;0.80;;
68449;SDS011;67758;39.572;2.652;2024-02-23T05:14:00;8.93;;;0.73;;
68449;SDS011;67758;39.572;2.652;2024-02-23T05:16:26;6.68;;;0.63;;
68449;SDS011;67758;39.572;2.652;2024-02-23T05:18:51;9.43;;;0.60;;
68449;SDS011;67758;39.572;2.652;2024-02-23T05:21:17;10.43;;;1.00;;
68449;SDS011;67758;39.572;2.652;2024-02-23T05:23:43;7.90;;;0.97;;
68449;SDS011;67758;39.572;2.652;2024-02-23T05:26:08;6.73;;;0.50;;
68449;SDS011;67758;39.572;2.652;2024-02-23T05:28:35;4.70;;;0.57;;
68449;SDS011;67758;39.572;2.652;2024-02-23T05:31:04;7.05;;;0.98;;
68449;SDS011;67758;39.572;2.652;2024-02-23T05:33:29;11.70;;;0.60;;
68449;SDS011;67758;39.572;2.652;2024-02-23T05:35:55;7.13;;;0.80;;
68449;SDS011;67758;39.572;2.652;2024-02-23T05:38:21;10.73;;;0.90;;
68449;SDS011;67758;39.572;2.652;2024-02-23T05:40:46;8.35;;;0.50;;
68449;SDS011;67758;39.572;2.652;2024-02-23T05:43:13;7.18;;;0.50;;
68449;SDS011;67758;39.572;2.652;2024-02-23T05:45:39;5.68;;;0.50;;
68449;SDS011;67758;39.572;2.652;2024-02-23T05:48:06;5.87;;;0.23;;
68449;SDS011;67758;39.572;2.652;2024-02-23T05:50:32;7.25;;;0.50;;
68449;SDS011;67758;39.572;2.652;2024-02-23T05:52:57;5.22;;;0.55;;
68449;SDS011;67758;39.572;2.652;2024-02-23T05:55:23;6.67;;;0.60;;
68449;SDS011;67758;39.572;2.652;2024-02-23T05:57:49;8.65;;;1.42;;
68449;SDS011;67758;39.572;2.652;2024-02-23T06:00:16;10.33;;;0.73;;
68449;SDS011;67758;39.572;2.652;2024-02-23T06:02:44;17.15;;;1.13;;
68449;SDS011;67758;39.572;2.652;2024-02-23T06:05:11;12.63;;;0.85;;
68449;SDS011;67758;39.572;2.652;2024-02-23T06:07:37;11.40;;;0.80;;
68449;SDS011;67758;39.572;2.652;2024-02-23T06:10:03;7.20;;;0.50;;
68449;SDS011;67758;39.572;2.652;2024-02-23T06:12:29;8.30;;;0.90;;
68449;SDS011;67758;39.572;2.652;2024-02-23T06:14:54;5.93;;;0.53;;
68449;SDS011;67758;39.572;2.652;2024-02-23T06:17:22;5.18;;;0.30;;
68449;SDS011;67758;39.572;2.652;2024-02-23T06:19:48;8.25;;;0.40;;
68449;SDS011;67758;39.572;2.652;2024-02-23T06:22:14;6.63;;;0.47;;
68449;SDS011;67758;39.572;2.652;2024-02-23T06:24:42;4.00;;;0.70;;
68449;SDS011;67758;39.572;2.652;2024-02-23T06:27:08;5.60;;;0.40;;
68449;SDS011;67758;39.572;2.652;2024-02-23T06:29:33;6.93;;;0.40;;
68449;SDS011;67758;39.572;2.652;2024-02-23T06:31:59;8.77;;;0.80;;
68449;SDS011;67758;39.572;2.652;2024-02-23T06:34:26;9.48;;;0.50;;
68449;SDS011;67758;39.572;2.652;2024-02-23T06:36:52;8.07;;;1.33;;
68449;SDS011;67758;39.572;2.652;2024-02-23T06:39:18;9.10;;;0.82;;
68449;SDS011;67758;39.572;2.652;2024-02-23T06:41:45;4.70;;;0.57;;
68449;SDS011;67758;39.572;2.652;2024-02-23T06:44:11;8.60;;;0.40;;
68449;SDS011;67758;39.572;2.652;2024-02-23T06:46:36;5.10;;;0.40;;
68449;SDS011;67758;39.572;2.652;2024-02-23T06:49:02;8.37;;;0.50;;
68449;SDS011;67758;39.572;2.652;2024-02-23T06:51:30;8.20;;;0.80;;
68449;SDS011;67758;39.572;2.652;2024-02-23T06:53:56;8.45;;;0.50;;
68449;SDS011;67758;39.572;2.652;2024-02-23T06:56:22;6.40;;;1.03;;
68449;SDS011;67758;39.572;2.652;2024-02-23T06:58:47;9.07;;;0.65;;
68449;SDS011;67758;39.572;2.652;2024-02-23T07:01:13;3.67;;;0.23;;
68449;SDS011;67758;39.572;2.652;2024-02-23T07:03:39;9.68;;;1.05;;
68449;SDS011;67758;39.572;2.652;2024-02-23T07:06:06;12.05;;;0.60;;
68449;SDS011;67758;39.572;2.652;2024-02-23T07:08:31;6.37;;;0.63;;
68449;SDS011;67758;39.572;2.652;2024-02-23T07:10:57;3.80;;;0.30;;
68449;SDS011;67758;39.572;2.652;2024-02-23T07:13:23;8.95;;;0.70;;
68449;SDS011;67758;39.572;2.652;2024-02-23T07:15:48;7.50;;;0.47;;
68449;SDS011;67758;39.572;2.652;2024-02-23T07:18:14;6.90;;;0.70;;
68449;SDS011;67758;39.572;2.652;2024-02-23T07:20:41;5.45;;;0.52;;
68449;SDS011;67758;39.572;2.652;2024-02-23T07:23:06;5.55;;;0.57;;
68449;SDS011;67758;39.572;2.652;2024-02-23T07:25:32;4.18;;;0.40;;
68449;SDS011;67758;39.572;2.652;2024-02-23T07:27:58;5.28;;;0.43;;
68449;SDS011;67758;39.572;2.652;2024-02-23T07:30:23;6.07;;;0.67;;
68449;SDS011;67758;39.572;2.652;2024-02-23T07:32:49;7.33;;;0.57;;
68449;SDS011;67758;39.572;2.652;2024-02-23T07:35:15;4.72;;;0.30;;
68449;SDS011;67758;39.572;2.652;2024-02-23T07:37:40;4.60;;;0.37;;
68449;SDS011;67758;39.572;2.652;2024-02-23T07:40:06;9.45;;;0.60;;
68449;SDS011;67758;39.572;2.652;2024-02-23T07:42:33;4.60;;;0.50;;
68449;SDS011;67758;39.572;2.652;2024-02-23T07:45:03;6.90;;;0.70;;
68449;SDS011;67758;39.572;2.652;2024-02-23T07:47:32;3.95;;;0.50;;
68449;SDS011;67758;39.572;2.652;2024-02-23T07:49:57;4.78;;;0.60;;
68449;SDS011;67758;39.572;2.652;2024-02-23T07:52:23;7.83;;;0.60;;
68449;SDS011;67758;39.572;2.652;2024-02-23T07:54:50;9.80;;;0.82;;
68449;SDS011;67758;39.572;2.652;2024-02-23T07:57:19;6.88;;;0.70;;
68449;SDS011;67758;39.572;2.652;2024-02-23T07:59:45;9.63;;;0.50;;
68449;SDS011;67758;39.572;2.652;2024-02-23T08:02:11;8.17;;;0.60;;
68449;SDS011;67758;39.572;2.652;2024-02-23T08:04:37;9.20;;;1.07;;
68449;SDS011;67758;39.572;2.652;2024-02-23T08:07:03;7.00;;;0.68;;
68449;SDS011;67758;39.572;2.652;2024-02-23T08:09:29;6.50;;;0.80;;
68449;SDS011;67758;39.572;2.652;2024-02-23T08:11:55;7.03;;;0.60;;
68449;SDS011;67758;39.572;2.652;2024-02-23T08:14:21;6.43;;;0.70;;
68449;SDS011;67758;39.572;2.652;2024-02-23T08:16:46;8.20;;;0.73;;
68449;SDS011;67758;39.572;2.652;2024-02-23T08:19:12;8.13;;;0.77;;
68449;SDS011;67758;39.572;2.652;2024-02-23T08:21:38;4.68;;;0.47;;
68449;SDS011;67758;39.572;2.652;2024-02-23T08:24:04;4.93;;;0.65;;
68449;SDS011;67758;39.572;2.652;2024-02-23T08:26:30;7.80;;;0.80;;
68449;SDS011;67758;39.572;2.652;2024-02-23T08:28:55;4.95;;;0.50;;
68449;SDS011;67758;39.572;2.652;2024-02-23T08:31:21;10.53;;;0.77;;
68449;SDS011;67758;39.572;2.652;2024-02-23T08:33:47;7.32;;;0.77;;
68449;SDS011;67758;39.572;2.652;2024-02-23T08:36:12;8.40;;;0.90;;
68449;SDS011;67758;39.572;2.652;2024-02-23T08:38:38;4.97;;;0.50;;
68449;SDS011;67758;39.572;2.652;2024-02-23T08:41:04;12.60;;;0.80;;
68449;SDS011;67758;39.572;2.652;2024-02-23T08:43:29;5.33;;;0.50;;
68449;SDS011;67758;39.572;2.652;2024-02-23T08:45:55;4.18;;;0.40;;
68449;SDS011;67758;39.572;2.652;2024-02-23T08:48:20;5.10;;;0.50;;
68449;SDS011;67758;39.572;2.652;2024-02-23T08:50:46;10.55;;;1.45;;
68449;SDS011;67758;39.572;2.652;2024-02-23T08:53:12;7.20;;;0.50;;
68449;SDS011;67758;39.572;2.652;2024-02-23T08:55:37;4.83;;;0.40;;
68449;SDS011;67758;39.572;2.652;2024-02-23T08:58:03;6.68;;;0.80;;
68449;SDS011;67758;39.572;2.652;2024-02-23T09:00:31;7.07;;;0.50;;
68449;SDS011;67758;39.572;2.652;2024-02-23T09:02:56;6.72;;;0.73;;
68449;SDS011;67758;39.572;2.652;2024-02-23T09:05:22;5.60;;;0.60;;
68449;SDS011;67758;39.572;2.652;2024-02-23T09:07:48;6.68;;;0.80;;
68449;SDS011;67758;39.572;2.652;2024-02-23T09:10:13;7.27;;;0.60;;
68449;SDS011;67758;39.572;2.652;2024-02-23T09:12:39;8.10;;;0.52;;
68449;SDS011;67758;39.572;2.652;2024-02-23T09:15:05;9.15;;;0.57;;
68449;SDS011;67758;39.572;2.652;2024-02-23T09:17:31;7.68;;;0.63;;
68449;SDS011;67758;39.572;2.652;2024-02-23T09:19:57;9.13;;;0.80;;
68449;SDS011;67758;39.572;2.652;2024-02-23T09:22:22;4.68;;;0.47;;
68449;SDS011;67758;39.572;2.652;2024-02-23T09:24:48;11.13;;;0.80;;
68449;SDS011;67758;39.572;2.652;2024-02-23T09:27:14;6.97;;;0.63;;
68449;SDS011;67758;39.572;2.652;2024-02-23T09:29:40;8.50;;;0.85;;
68449;SDS011;67758;39.572;2.652;2024-02-23T09:32:09;12.13;;;0.88;;
68449;SDS011;67758;39.572;2.652;2024-02-23T09:34:34;8.02;;;1.00;;
68449;SDS011;67758;39.572;2.652;2024-02-23T09:37:00;8.63;;;0.90;;
68449;SDS011;67758;39.572;2.652;2024-02-23T09:39:26;6.23;;;0.77;;
68449;SDS011;67758;39.572;2.652;2024-02-23T09:41:55;6.25;;;0.77;;
68449;SDS011;67758;39.572;2.652;2024-02-23T09:44:26;6.43;;;0.60;;
68449;SDS011;67758;39.572;2.652;2024-02-23T09:46:58;6.00;;;0.70;;
68449;SDS011;67758;39.572;2.652;2024-02-23T09:49:26;8.85;;;0.93;;
68449;SDS011;67758;39.572;2.652;2024-02-23T09:51:52;6.90;;;0.53;;
68449;SDS011;67758;39.572;2.652;2024-02-23T09:54:19;5.93;;;0.70;;
68449;SDS011;67758;39.572;2.652;2024-02-23T09:56:45;6.00;;;0.67;;
68449;SDS011;67758;39.572;2.652;2024-02-23T09:59:11;3.55;;;0.43;;
68449;SDS011;67758;39.572;2.652;2024-02-23T10:01:38;6.70;;;0.43;;
68449;SDS011;67758;39.572;2.652;2024-02-23T10:04:03;4.60;;;0.65;;
68449;SDS011;67758;39.572;2.652;2024-02-23T10:06:31;7.43;;;0.60;;
68449;SDS011;67758;39.572;2.652;2024-02-23T10:08:57;3.07;;;0.40;;
68449;SDS011;67758;39.572;2.652;2024-02-23T10:11:23;5.10;;;0.50;;
68449;SDS011;67758;39.572;2.652;2024-02-23T10:13:49;8.57;;;0.88;;
68449;SDS011;67758;39.572;2.652;2024-02-23T10:16:17;6.68;;;0.55;;
68449;SDS011;67758;39.572;2.652;2024-02-23T10:18:45;10.57;;;0.73;;
68449;SDS011;67758;39.572;2.652;2024-02-23T10:21:12;7.95;;;0.95;;
68449;SDS011;67758;39.572;2.652;2024-02-23T10:23:38;6.57;;;0.50;;
68449;SDS011;67758;39.572;2.652;2024-02-23T10:26:04;4.63;;;0.70;;
68449;SDS011;67758;39.572;2.652;2024-02-23T10:28:31;4.82;;;0.65;;
68449;SDS011;67758;39.572;2.652;2024-02-23T10:30:57;4.57;;;0.85;;
68449;SDS011;67758;39.572;2.652;2024-02-23T10:33:23;5.30;;;0.90;;
68449;SDS011;67758;39.572;2.652;2024-02-23T10:35:53;6.53;;;1.25;;
68449;SDS011;67758;39.572;2.652;2024-02-23T10:38:22;5.63;;;0.85;;
68449;SDS011;67758;39.572;2.652;2024-02-23T10:40:49;9.93;;;0.70;;
68449;SDS011;67758;39.572;2.652;2024-02-23T10:43:17;7.70;;;1.17;;
68449;SDS011;67758;39.572;2.652;2024-02-23T10:45:46;3.50;;;0.80;;
68449;SDS011;67758;39.572;2.652;2024-02-23T10:48:11;5.82;;;0.90;;
68449;SDS011;67758;39.572;2.652;2024-02-23T10:50:39;4.77;;;1.07;;
68449;SDS011;67758;39.572;2.652;2024-02-23T10:53:09;6.60;;;0.82;;
68449;SDS011;67758;39.572;2.652;2024-02-23T10:55:36;6.10;;;1.60;;
68449;SDS011;67758;39.572;2.652;2024-02-23T10:58:06;5.70;;;1.02;;
68449;SDS011;67758;39.572;2.652;2024-02-23T11:00:36;7.78;;;1.00;;
68449;SDS011;67758;39.572;2.652;2024-02-23T11:03:02;3.67;;;0.80;;
68449;SDS011;67758;39.572;2.652;2024-02-23T11:05:30;5.03;;;0.88;;
68449;SDS011;67758;39.572;2.652;2024-02-23T11:07:56;7.20;;;1.33;;
68449;SDS011;67758;39.572;2.652;2024-02-23T11:10:22;5.68;;;0.80;;
68449;SDS011;67758;39.572;2.652;2024-02-23T11:12:59;4.90;;;0.83;;
68449;SDS011;67758;39.572;2.652;2024-02-23T11:15:29;8.15;;;0.82;;
68449;SDS011;67758;39.572;2.652;2024-02-23T11:17:58;3.92;;;0.80;;
68449;SDS011;67758;39.572;2.652;2024-02-23T11:20:33;6.00;;;0.90;;
68449;SDS011;67758;39.572;2.652;2024-02-23T11:23:00;6.05;;;1.02;;
68449;SDS011;67758;39.572;2.652;2024-02-23T11:25:29;9.43;;;0.87;;
68449;SDS011;67758;39.572;2.652;2024-02-23T11:27:54;4.55;;;1.10;;
68449;SDS011;67758;39.572;2.652;2024-02-23T11:30:20;7.40;;;1.03;;
68449;SDS011;67758;39.572;2.652;2024-02-23T11:32:46;6.07;;;1.20;;
68449;SDS011;67758;39.572;2.652;2024-02-23T11:35:16;6.10;;;1.10;;
68449;SDS011;67758;39.572;2.652;2024-02-23T11:37:47;5.72;;;0.93;;
68449;SDS011;67758;39.572;2.652;2024-02-23T11:40:26;5.38;;;1.17;;
68449;SDS011;67758;39.572;2.652;2024-02-23T11:42:54;8.35;;;1.20;;
68449;SDS011;67758;39.572;2.652;2024-02-23T11:45:20;4.18;;;0.90;;
68449;SDS011;67758;39.572;2.652;2024-02-23T11:47:47;6.03;;;1.58;;
68449;SDS011;67758;39.572;2.652;2024-02-23T11:50:17;8.48;;;1.35;;
68449;SDS011;67758;39.572;2.652;2024-02-23T11:52:47;7.00;;;1.10;;
68449;SDS011;67758;39.572;2.652;2024-02-23T11:55:23;8.38;;;1.42;;
68449;SDS011;67758;39.572;2.652;2024-02-23T11:57:51;5.00;;;1.08;;
68449;SDS011;67758;39.572;2.652;2024-02-23T12:00:17;6.40;;;1.20;;
68449;SDS011;67758;39.572;2.652;2024-02-23T12:02:43;5.35;;;1.10;;
68449;SDS011;67758;39.572;2.652;2024-02-23T12:05:15;4.90;;;1.02;;
68449;SDS011;67758;39.572;2.652;2024-02-23T12:07:41;5.78;;;0.90;;
68449;SDS011;67758;39.572;2.652;2024-02-23T12:10:09;4.40;;;0.87;;
68449;SDS011;67758;39.572;2.652;2024-02-23T12:12:36;6.05;;;1.40;;
68449;SDS011;67758;39.572;2.652;2024-02-23T12:15:02;7.25;;;1.33;;
68449;SDS011;67758;39.572;2.652;2024-02-23T12:17:28;5.77;;;1.30;;
68449;SDS011;67758;39.572;2.652;2024-02-23T12:19:57;7.10;;;1.77;;
68449;SDS011;67758;39.572;2.652;2024-02-23T12:22:24;6.88;;;1.38;;
68449;SDS011;67758;39.572;2.652;2024-02-23T12:24:50;7.35;;;1.23;;
68449;SDS011;67758;39.572;2.652;2024-02-23T12:27:17;8.13;;;1.17;;
68449;SDS011;67758;39.572;2.652;2024-02-23T12:29:51;5.80;;;0.93;;
68449;SDS011;67758;39.572;2.652;2024-02-23T12:32:20;9.10;;;1.35;;
68449;SDS011;67758;39.572;2.652;2024-02-23T12:34:46;4.10;;;1.35;;
68449;SDS011;67758;39.572;2.652;2024-02-23T12:37:15;6.30;;;1.40;;
68449;SDS011;67758;39.572;2.652;2024-02-23T12:39:42;4.82;;;1.08;;
68449;SDS011;67758;39.572;2.652;2024-02-23T12:42:08;5.07;;;1.60;;
68449;SDS011;67758;39.572;2.652;2024-02-23T12:44:36;5.45;;;1.33;;
68449;SDS011;67758;39.572;2.652;2024-02-23T12:47:05;8.38;;;1.85;;
68449;SDS011;67758;39.572;2.652;2024-02-23T12:49:31;5.47;;;1.43;;
68449;SDS011;67758;39.572;2.652;2024-02-23T12:51:56;11.13;;;1.67;;
68449;SDS011;67758;39.572;2.652;2024-02-23T12:54:22;4.40;;;0.98;;
68449;SDS011;67758;39.572;2.652;2024-02-23T12:56:48;5.57;;;1.40;;
68449;SDS011;67758;39.572;2.652;2024-02-23T12:59:14;7.40;;;1.10;;
68449;SDS011;67758;39.572;2.652;2024-02-23T13:01:40;5.57;;;1.10;;
68449;SDS011;67758;39.572;2.652;2024-02-23T13:04:06;5.00;;;0.80;;
68449;SDS011;67758;39.572;2.652;2024-02-23T13:06:36;5.38;;;1.05;;
68449;SDS011;67758;39.572;2.652;2024-02-23T13:09:03;6.85;;;1.10;;
68449;SDS011;67758;39.572;2.652;2024-02-23T13:11:30;6.22;;;1.00;;
68449;SDS011;67758;39.572;2.652;2024-02-23T13:13:56;8.00;;;1.30;;
68449;SDS011;67758;39.572;2.652;2024-02-23T13:16:21;6.53;;;1.13;;
68449;SDS011;67758;39.572;2.652;2024-02-23T13:18:47;6.00;;;0.63;;
68449;SDS011;67758;39.572;2.652;2024-02-23T13:21:13;4.40;;;0.80;;
68449;SDS011;67758;39.572;2.652;2024-02-23T13:23:39;7.43;;;1.02;;
68449;SDS011;67758;39.572;2.652;2024-02-23T13:26:07;4.32;;;0.80;;
68449;SDS011;67758;39.572;2.652;2024-02-23T13:28:32;5.35;;;0.98;;
68449;SDS011;67758;39.572;2.652;2024-02-23T13:30:58;5.30;;;1.00;;
68449;SDS011;67758;39.572;2.652;2024-02-23T13:33:23;7.27;;;0.97;;
68449;SDS011;67758;39.572;2.652;2024-02-23T13:35:51;2.55;;;0.55;;
68449;SDS011;67758;39.572;2.652;2024-02-23T13:38:17;7.57;;;0.85;;
68449;SDS011;67758;39.572;2.652;2024-02-23T13:40:42;5.40;;;0.67;;
68449;SDS011;67758;39.572;2.652;2024-02-23T13:43:08;4.07;;;0.70;;
68449;SDS011;67758;39.572;2.652;2024-02-23T13:45:47;6.55;;;0.90;;
68449;SDS011;67758;39.572;2.652;2024-02-23T13:48:14;4.68;;;0.63;;
68449;SDS011;67758;39.572;2.652;2024-02-23T13:50:40;4.70;;;1.00;;
68449;SDS011;67758;39.572;2.652;2024-02-23T13:53:05;4.07;;;0.52;;
68449;SDS011;67758;39.572;2.652;2024-02-23T13:55:31;3.93;;;0.77;;
68449;SDS011;67758;39.572;2.652;2024-02-23T13:57:57;6.38;;;1.45;;
68449;SDS011;67758;39.572;2.652;2024-02-23T14:00:22;6.77;;;1.70;;
68449;SDS011;67758;39.572;2.652;2024-02-23T14:02:48;5.13;;;0.60;;
68449;SDS011;67758;39.572;2.652;2024-02-23T14:05:14;5.22;;;0.98;;
68449;SDS011;67758;39.572;2.652;2024-02-23T14:07:40;4.63;;;0.90;;
68449;SDS011;67758;39.572;2.652;2024-02-23T14:10:06;5.73;;;0.80;;
68449;SDS011;67758;39.572;2.652;2024-02-23T14:12:32;6.65;;;0.85;;
68449;SDS011;67758;39.572;2.652;2024-02-23T14:14:58;6.43;;;0.80;;
68449;SDS011;67758;39.572;2.652;2024-02-23T14:17:24;3.93;;;0.90;;
68449;SDS011;67758;39.572;2.652;2024-02-23T14:19:49;8.07;;;1.60;;
68449;SDS011;67758;39.572;2.652;2024-02-23T14:22:16;9.43;;;1.02;;
68449;SDS011;67758;39.572;2.652;2024-02-23T14:24:42;4.68;;;0.90;;
68449;SDS011;67758;39.572;2.652;2024-02-23T14:27:07;4.40;;;0.83;;
68449;SDS011;67758;39.572;2.652;2024-02-23T14:29:33;3.88;;;0.88;;
68449;SDS011;67758;39.572;2.652;2024-02-23T14:31:59;4.93;;;1.10;;
68449;SDS011;67758;39.572;2.652;2024-02-23T14:34:26;3.38;;;1.02;;
68449;SDS011;67758;39.572;2.652;2024-02-23T14:36:52;6.82;;;1.50;;
68449;SDS011;67758;39.572;2.652;2024-02-23T14:39:18;4.80;;;1.00;;
68449;SDS011;67758;39.572;2.652;2024-02-23T14:41:43;4.07;;;0.80;;